sensor_id;sensor_type;location;lat;lon;timestamp;P1;durP1;ratioP1;P2;durP2;ratioP2
17214;SDS011;8723;51.502;6.918;2022-12-07T00:01:20;19.73;;;17.63;;
17214;SDS011;8723;51.502;6.918;2022-12-07T00:03:49;20.58;;;18.38;;
17214;SDS011;8723;51.502;6.918;2022-12-07T00:06:17;20.95;;;18.85;;
17214;SDS011;8723;51.502;6.918;2022-12-07T00:08:44;21.45;;;19.15;;
17214;SDS011;8723;51.502;6.918;2022-12-07T00:11:12;20.63;;;17.75;;
17214;SDS011;8723;51.502;6.918;2022-12-07T00:13:40;19.95;;;17.85;;
17214;SDS011;8723;51.502;6.918;2022-12-07T00:16:07;16.58;;;14.98;;
17214;SDS011;8723;51.502;6.918;2022-12-07T00:18:35;19.88;;;17.77;;
17214;SDS011;8723;51.502;6.918;2022-12-07T00:21:04;20.10;;;18.15;;
17214;SDS011;8723;51.502;6.918;2022-12-07T00:23:32;16.23;;;14.73;;
17214;SDS011;8723;51.502;6.918;2022-12-07T00:26:02;22.17;;;20.05;;
17214;SDS011;8723;51.502;6.918;2022-12-07T00:28:33;20.23;;;18.27;;
17214;SDS011;8723;51.502;6.918;2022-12-07T00:31:01;20.60;;;18.48;;
17214;SDS011;8723;51.502;6.918;2022-12-07T00:33:28;20.48;;;18.58;;
17214;SDS011;8723;51.502;6.918;2022-12-07T00:35:56;19.83;;;17.88;;
17214;SDS011;8723;51.502;6.918;2022-12-07T00:38:24;22.63;;;20.50;;
17214;SDS011;8723;51.502;6.918;2022-12-07T00:40:58;22.33;;;20.23;;
17214;SDS011;8723;51.502;6.918;2022-12-07T00:43:25;21.00;;;19.10;;
17214;SDS011;8723;51.502;6.918;2022-12-07T00:45:52;24.45;;;22.17;;
17214;SDS011;8723;51.502;6.918;2022-12-07T00:48:19;24.50;;;22.40;;
17214;SDS011;8723;51.502;6.918;2022-12-07T00:50:46;22.33;;;20.33;;
17214;SDS011;8723;51.502;6.918;2022-12-07T00:53:14;23.98;;;21.77;;
17214;SDS011;8723;51.502;6.918;2022-12-07T00:55:42;21.00;;;19.10;;
17214;SDS011;8723;51.502;6.918;2022-12-07T00:58:10;20.40;;;18.53;;
17214;SDS011;8723;51.502;6.918;2022-12-07T01:00:38;25.40;;;23.05;;
17214;SDS011;8723;51.502;6.918;2022-12-07T01:03:05;24.20;;;22.00;;
17214;SDS011;8723;51.502;6.918;2022-12-07T01:05:32;25.08;;;22.75;;
17214;SDS011;8723;51.502;6.918;2022-12-07T01:07:59;27.05;;;24.75;;
17214;SDS011;8723;51.502;6.918;2022-12-07T01:10:26;26.60;;;24.10;;
17214;SDS011;8723;51.502;6.918;2022-12-07T01:12:56;24.27;;;22.00;;
17214;SDS011;8723;51.502;6.918;2022-12-07T01:15:24;24.75;;;22.50;;
17214;SDS011;8723;51.502;6.918;2022-12-07T01:17:51;25.02;;;22.73;;
17214;SDS011;8723;51.502;6.918;2022-12-07T01:20:19;26.30;;;23.95;;
17214;SDS011;8723;51.502;6.918;2022-12-07T01:22:46;25.50;;;23.17;;
17214;SDS011;8723;51.502;6.918;2022-12-07T01:25:13;25.48;;;23.17;;
17214;SDS011;8723;51.502;6.918;2022-12-07T01:27:41;25.60;;;23.27;;
17214;SDS011;8723;51.502;6.918;2022-12-07T01:30:13;26.08;;;23.67;;
17214;SDS011;8723;51.502;6.918;2022-12-07T01:32:40;24.17;;;21.88;;
17214;SDS011;8723;51.502;6.918;2022-12-07T01:35:07;24.55;;;22.25;;
17214;SDS011;8723;51.502;6.918;2022-12-07T01:37:35;25.00;;;22.80;;
17214;SDS011;8723;51.502;6.918;2022-12-07T01:40:03;23.60;;;21.50;;
17214;SDS011;8723;51.502;6.918;2022-12-07T01:42:30;26.83;;;24.13;;
17214;SDS011;8723;51.502;6.918;2022-12-07T01:48:10;22.67;;;20.60;;
17214;SDS011;8723;51.502;6.918;2022-12-07T01:50:38;25.55;;;23.15;;
17214;SDS011;8723;51.502;6.918;2022-12-07T01:53:06;27.63;;;25.08;;
17214;SDS011;8723;51.502;6.918;2022-12-07T01:55:34;26.00;;;23.52;;
17214;SDS011;8723;51.502;6.918;2022-12-07T01:58:03;26.77;;;24.38;;
17214;SDS011;8723;51.502;6.918;2022-12-07T02:00:30;25.63;;;23.33;;
17214;SDS011;8723;51.502;6.918;2022-12-07T02:02:59;26.98;;;24.52;;
17214;SDS011;8723;51.502;6.918;2022-12-07T02:05:29;24.17;;;21.92;;
17214;SDS011;8723;51.502;6.918;2022-12-07T02:07:57;25.48;;;23.02;;
17214;SDS011;8723;51.502;6.918;2022-12-07T02:10:26;24.42;;;22.10;;
17214;SDS011;8723;51.502;6.918;2022-12-07T02:12:54;26.15;;;23.55;;
17214;SDS011;8723;51.502;6.918;2022-12-07T02:15:23;27.17;;;24.58;;
17214;SDS011;8723;51.502;6.918;2022-12-07T02:17:54;25.77;;;23.33;;
17214;SDS011;8723;51.502;6.918;2022-12-07T02:20:23;25.75;;;23.35;;
17214;SDS011;8723;51.502;6.918;2022-12-07T02:25:52;25.23;;;22.85;;
17214;SDS011;8723;51.502;6.918;2022-12-07T02:28:24;25.23;;;22.92;;
17214;SDS011;8723;51.502;6.918;2022-12-07T02:30:55;26.95;;;24.45;;
17214;SDS011;8723;51.502;6.918;2022-12-07T02:33:26;25.80;;;23.50;;
17214;SDS011;8723;51.502;6.918;2022-12-07T02:35:55;25.35;;;22.77;;
17214;SDS011;8723;51.502;6.918;2022-12-07T02:38:25;21.90;;;19.88;;
17214;SDS011;8723;51.502;6.918;2022-12-07T02:40:54;23.95;;;21.73;;
17214;SDS011;8723;51.502;6.918;2022-12-07T02:43:23;23.23;;;20.95;;
17214;SDS011;8723;51.502;6.918;2022-12-07T02:45:51;25.63;;;23.23;;
17214;SDS011;8723;51.502;6.918;2022-12-07T02:48:20;22.77;;;20.67;;
17214;SDS011;8723;51.502;6.918;2022-12-07T02:50:48;25.80;;;23.45;;
17214;SDS011;8723;51.502;6.918;2022-12-07T02:53:28;25.27;;;22.98;;
17214;SDS011;8723;51.502;6.918;2022-12-07T02:55:56;26.67;;;24.25;;
17214;SDS011;8723;51.502;6.918;2022-12-07T02:58:25;26.23;;;23.65;;
17214;SDS011;8723;51.502;6.918;2022-12-07T03:00:59;27.27;;;24.63;;
17214;SDS011;8723;51.502;6.918;2022-12-07T03:03:32;26.50;;;23.80;;
17214;SDS011;8723;51.502;6.918;2022-12-07T03:06:05;28.48;;;25.75;;
17214;SDS011;8723;51.502;6.918;2022-12-07T03:08:37;27.77;;;25.27;;
17214;SDS011;8723;51.502;6.918;2022-12-07T03:11:06;29.60;;;26.67;;
17214;SDS011;8723;51.502;6.918;2022-12-07T03:13:37;30.40;;;27.40;;
17214;SDS011;8723;51.502;6.918;2022-12-07T03:16:08;30.48;;;27.52;;
17214;SDS011;8723;51.502;6.918;2022-12-07T03:18:38;29.15;;;26.50;;
17214;SDS011;8723;51.502;6.918;2022-12-07T03:21:06;28.33;;;25.52;;
17214;SDS011;8723;51.502;6.918;2022-12-07T03:23:35;29.63;;;26.80;;
17214;SDS011;8723;51.502;6.918;2022-12-07T03:26:04;30.15;;;27.15;;
17214;SDS011;8723;51.502;6.918;2022-12-07T03:28:32;29.27;;;26.38;;
17214;SDS011;8723;51.502;6.918;2022-12-07T03:31:00;31.08;;;27.90;;
17214;SDS011;8723;51.502;6.918;2022-12-07T03:33:29;30.27;;;27.45;;
17214;SDS011;8723;51.502;6.918;2022-12-07T03:36:00;30.52;;;27.63;;
17214;SDS011;8723;51.502;6.918;2022-12-07T03:38:29;29.17;;;26.48;;
17214;SDS011;8723;51.502;6.918;2022-12-07T03:40:58;30.50;;;27.50;;
17214;SDS011;8723;51.502;6.918;2022-12-07T03:43:27;30.88;;;27.77;;
17214;SDS011;8723;51.502;6.918;2022-12-07T03:45:56;30.58;;;27.42;;
17214;SDS011;8723;51.502;6.918;2022-12-07T03:48:27;31.08;;;28.10;;
17214;SDS011;8723;51.502;6.918;2022-12-07T03:51:00;31.47;;;28.30;;
17214;SDS011;8723;51.502;6.918;2022-12-07T03:53:29;30.25;;;27.27;;
17214;SDS011;8723;51.502;6.918;2022-12-07T03:55:58;30.25;;;27.30;;
17214;SDS011;8723;51.502;6.918;2022-12-07T03:58:25;31.20;;;28.25;;
17214;SDS011;8723;51.502;6.918;2022-12-07T04:00:53;31.17;;;27.97;;
17214;SDS011;8723;51.502;6.918;2022-12-07T04:03:20;31.08;;;28.08;;
17214;SDS011;8723;51.502;6.918;2022-12-07T04:05:47;29.83;;;26.73;;
17214;SDS011;8723;51.502;6.918;2022-12-07T04:08:15;30.60;;;27.77;;
17214;SDS011;8723;51.502;6.918;2022-12-07T04:10:42;31.23;;;28.05;;
17214;SDS011;8723;51.502;6.918;2022-12-07T04:13:10;30.08;;;26.98;;
17214;SDS011;8723;51.502;6.918;2022-12-07T04:15:37;29.83;;;26.67;;
17214;SDS011;8723;51.502;6.918;2022-12-07T04:18:04;28.65;;;25.83;;
17214;SDS011;8723;51.502;6.918;2022-12-07T04:20:31;29.90;;;26.70;;
17214;SDS011;8723;51.502;6.918;2022-12-07T04:22:58;29.97;;;26.90;;
17214;SDS011;8723;51.502;6.918;2022-12-07T04:25:27;28.63;;;25.70;;
17214;SDS011;8723;51.502;6.918;2022-12-07T04:27:54;29.95;;;26.85;;
17214;SDS011;8723;51.502;6.918;2022-12-07T04:30:21;28.75;;;25.98;;
17214;SDS011;8723;51.502;6.918;2022-12-07T04:32:48;27.90;;;25.20;;
17214;SDS011;8723;51.502;6.918;2022-12-07T04:35:15;27.25;;;24.55;;
17214;SDS011;8723;51.502;6.918;2022-12-07T04:37:42;28.77;;;25.77;;
17214;SDS011;8723;51.502;6.918;2022-12-07T04:40:09;29.13;;;26.15;;
17214;SDS011;8723;51.502;6.918;2022-12-07T04:42:40;29.15;;;26.15;;
17214;SDS011;8723;51.502;6.918;2022-12-07T04:45:08;28.37;;;25.33;;
17214;SDS011;8723;51.502;6.918;2022-12-07T04:47:35;28.60;;;25.80;;
17214;SDS011;8723;51.502;6.918;2022-12-07T04:50:02;28.15;;;25.17;;
17214;SDS011;8723;51.502;6.918;2022-12-07T04:52:29;27.67;;;24.42;;
17214;SDS011;8723;51.502;6.918;2022-12-07T04:54:56;27.73;;;24.90;;
17214;SDS011;8723;51.502;6.918;2022-12-07T04:57:24;26.87;;;24.17;;
17214;SDS011;8723;51.502;6.918;2022-12-07T04:59:52;30.33;;;27.05;;
17214;SDS011;8723;51.502;6.918;2022-12-07T05:02:19;27.52;;;24.65;;
17214;SDS011;8723;51.502;6.918;2022-12-07T05:04:46;28.08;;;25.17;;
17214;SDS011;8723;51.502;6.918;2022-12-07T05:07:13;28.45;;;25.63;;
17214;SDS011;8723;51.502;6.918;2022-12-07T05:09:40;29.38;;;26.38;;
17214;SDS011;8723;51.502;6.918;2022-12-07T05:12:08;28.65;;;25.75;;
17214;SDS011;8723;51.502;6.918;2022-12-07T05:14:35;28.00;;;25.20;;
17214;SDS011;8723;51.502;6.918;2022-12-07T05:17:03;29.38;;;26.25;;
17214;SDS011;8723;51.502;6.918;2022-12-07T05:19:30;26.30;;;23.60;;
17214;SDS011;8723;51.502;6.918;2022-12-07T05:21:57;28.45;;;25.45;;
17214;SDS011;8723;51.502;6.918;2022-12-07T05:24:24;27.90;;;25.02;;
17214;SDS011;8723;51.502;6.918;2022-12-07T05:26:52;27.83;;;24.83;;
17214;SDS011;8723;51.502;6.918;2022-12-07T05:29:19;29.00;;;26.00;;
17214;SDS011;8723;51.502;6.918;2022-12-07T05:31:46;26.60;;;23.80;;
17214;SDS011;8723;51.502;6.918;2022-12-07T05:34:14;26.08;;;23.48;;
17214;SDS011;8723;51.502;6.918;2022-12-07T05:36:41;24.95;;;22.45;;
17214;SDS011;8723;51.502;6.918;2022-12-07T05:39:08;24.85;;;22.35;;
17214;SDS011;8723;51.502;6.918;2022-12-07T05:41:36;27.35;;;24.35;;
17214;SDS011;8723;51.502;6.918;2022-12-07T05:44:21;25.25;;;22.45;;
17214;SDS011;8723;51.502;6.918;2022-12-07T05:46:48;26.05;;;23.25;;
17214;SDS011;8723;51.502;6.918;2022-12-07T05:49:16;24.70;;;22.00;;
17214;SDS011;8723;51.502;6.918;2022-12-07T05:51:43;23.88;;;20.73;;
17214;SDS011;8723;51.502;6.918;2022-12-07T05:54:11;25.25;;;22.50;;
17214;SDS011;8723;51.502;6.918;2022-12-07T05:56:38;25.02;;;22.40;;
17214;SDS011;8723;51.502;6.918;2022-12-07T05:59:05;24.67;;;22.08;;
17214;SDS011;8723;51.502;6.918;2022-12-07T06:01:49;23.50;;;21.20;;
17214;SDS011;8723;51.502;6.918;2022-12-07T06:04:18;23.33;;;20.92;;
17214;SDS011;8723;51.502;6.918;2022-12-07T06:06:45;25.23;;;22.48;;
17214;SDS011;8723;51.502;6.918;2022-12-07T06:09:12;23.25;;;19.98;;
17214;SDS011;8723;51.502;6.918;2022-12-07T06:11:40;23.75;;;21.08;;
17214;SDS011;8723;51.502;6.918;2022-12-07T06:14:24;23.42;;;20.80;;
17214;SDS011;8723;51.502;6.918;2022-12-07T06:16:51;23.65;;;21.17;;
17214;SDS011;8723;51.502;6.918;2022-12-07T06:19:20;24.75;;;21.20;;
17214;SDS011;8723;51.502;6.918;2022-12-07T06:21:47;22.88;;;20.48;;
17214;SDS011;8723;51.502;6.918;2022-12-07T06:24:14;24.05;;;21.52;;
17214;SDS011;8723;51.502;6.918;2022-12-07T06:26:42;23.10;;;20.60;;
17214;SDS011;8723;51.502;6.918;2022-12-07T06:29:09;22.95;;;20.60;;
17214;SDS011;8723;51.502;6.918;2022-12-07T06:31:37;23.38;;;20.02;;
17214;SDS011;8723;51.502;6.918;2022-12-07T06:34:04;21.25;;;19.08;;
17214;SDS011;8723;51.502;6.918;2022-12-07T06:36:34;22.23;;;19.95;;
17214;SDS011;8723;51.502;6.918;2022-12-07T06:39:02;23.33;;;20.83;;
17214;SDS011;8723;51.502;6.918;2022-12-07T06:41:29;20.55;;;18.55;;
17214;SDS011;8723;51.502;6.918;2022-12-07T06:43:56;24.02;;;19.23;;
17214;SDS011;8723;51.502;6.918;2022-12-07T06:46:23;24.02;;;18.80;;
17214;SDS011;8723;51.502;6.918;2022-12-07T06:48:50;20.70;;;18.23;;
17214;SDS011;8723;51.502;6.918;2022-12-07T06:51:17;21.02;;;18.83;;
17214;SDS011;8723;51.502;6.918;2022-12-07T06:53:46;20.92;;;18.75;;
17214;SDS011;8723;51.502;6.918;2022-12-07T06:56:13;23.13;;;19.60;;
17214;SDS011;8723;51.502;6.918;2022-12-07T06:58:40;20.58;;;18.48;;
17214;SDS011;8723;51.502;6.918;2022-12-07T07:01:09;22.42;;;19.00;;
17214;SDS011;8723;51.502;6.918;2022-12-07T07:03:36;21.80;;;18.98;;
17214;SDS011;8723;51.502;6.918;2022-12-07T07:06:03;23.15;;;19.17;;
17214;SDS011;8723;51.502;6.918;2022-12-07T07:08:30;22.58;;;19.13;;
17214;SDS011;8723;51.502;6.918;2022-12-07T07:10:59;22.80;;;19.63;;
17214;SDS011;8723;51.502;6.918;2022-12-07T07:13:26;21.95;;;18.73;;
17214;SDS011;8723;51.502;6.918;2022-12-07T07:15:53;20.27;;;18.10;;
17214;SDS011;8723;51.502;6.918;2022-12-07T07:18:21;21.92;;;19.42;;
17214;SDS011;8723;51.502;6.918;2022-12-07T07:20:49;21.40;;;18.92;;
17214;SDS011;8723;51.502;6.918;2022-12-07T07:23:16;22.50;;;19.35;;
17214;SDS011;8723;51.502;6.918;2022-12-07T07:25:43;23.92;;;19.85;;
17214;SDS011;8723;51.502;6.918;2022-12-07T07:28:12;22.58;;;19.88;;
17214;SDS011;8723;51.502;6.918;2022-12-07T07:30:39;22.38;;;19.63;;
17214;SDS011;8723;51.502;6.918;2022-12-07T07:33:06;22.33;;;18.60;;
17214;SDS011;8723;51.502;6.918;2022-12-07T07:35:34;23.48;;;18.45;;
17214;SDS011;8723;51.502;6.918;2022-12-07T07:38:01;23.17;;;18.53;;
17214;SDS011;8723;51.502;6.918;2022-12-07T07:40:28;23.45;;;19.10;;
17214;SDS011;8723;51.502;6.918;2022-12-07T07:42:56;26.13;;;19.70;;
17214;SDS011;8723;51.502;6.918;2022-12-07T07:45:25;24.85;;;18.85;;
17214;SDS011;8723;51.502;6.918;2022-12-07T07:47:53;29.05;;;19.67;;
17214;SDS011;8723;51.502;6.918;2022-12-07T07:50:21;26.85;;;19.30;;
17214;SDS011;8723;51.502;6.918;2022-12-07T07:52:49;27.50;;;19.42;;
17214;SDS011;8723;51.502;6.918;2022-12-07T07:55:16;26.58;;;19.75;;
17214;SDS011;8723;51.502;6.918;2022-12-07T07:57:43;27.70;;;20.50;;
17214;SDS011;8723;51.502;6.918;2022-12-07T08:00:11;25.10;;;21.02;;
17214;SDS011;8723;51.502;6.918;2022-12-07T08:02:40;23.92;;;17.88;;
17214;SDS011;8723;51.502;6.918;2022-12-07T08:05:08;27.05;;;18.83;;
17214;SDS011;8723;51.502;6.918;2022-12-07T08:07:36;22.83;;;17.55;;
17214;SDS011;8723;51.502;6.918;2022-12-07T08:10:04;24.58;;;17.30;;
17214;SDS011;8723;51.502;6.918;2022-12-07T08:12:31;17.92;;;15.30;;
17214;SDS011;8723;51.502;6.918;2022-12-07T08:15:02;19.73;;;14.48;;
17214;SDS011;8723;51.502;6.918;2022-12-07T08:17:29;18.90;;;13.73;;
17214;SDS011;8723;51.502;6.918;2022-12-07T08:19:58;19.05;;;14.60;;
17214;SDS011;8723;51.502;6.918;2022-12-07T08:22:25;18.73;;;13.52;;
17214;SDS011;8723;51.502;6.918;2022-12-07T08:24:52;19.10;;;13.30;;
17214;SDS011;8723;51.502;6.918;2022-12-07T08:27:19;21.15;;;14.82;;
17214;SDS011;8723;51.502;6.918;2022-12-07T08:29:48;17.85;;;13.90;;
17214;SDS011;8723;51.502;6.918;2022-12-07T08:32:15;18.35;;;14.40;;
17214;SDS011;8723;51.502;6.918;2022-12-07T08:34:43;19.07;;;14.20;;
17214;SDS011;8723;51.502;6.918;2022-12-07T08:37:11;19.85;;;14.32;;
17214;SDS011;8723;51.502;6.918;2022-12-07T08:39:38;20.48;;;15.43;;
17214;SDS011;8723;51.502;6.918;2022-12-07T08:42:05;17.95;;;15.27;;
17214;SDS011;8723;51.502;6.918;2022-12-07T08:44:32;19.33;;;15.20;;
17214;SDS011;8723;51.502;6.918;2022-12-07T08:47:00;22.98;;;16.55;;
17214;SDS011;8723;51.502;6.918;2022-12-07T08:49:30;24.08;;;16.02;;
17214;SDS011;8723;51.502;6.918;2022-12-07T08:51:59;18.35;;;15.18;;
17214;SDS011;8723;51.502;6.918;2022-12-07T08:54:27;19.25;;;15.32;;
17214;SDS011;8723;51.502;6.918;2022-12-07T08:56:55;19.35;;;14.77;;
17214;SDS011;8723;51.502;6.918;2022-12-07T08:59:23;17.58;;;14.32;;
17214;SDS011;8723;51.502;6.918;2022-12-07T09:01:50;14.20;;;12.10;;
17214;SDS011;8723;51.502;6.918;2022-12-07T09:04:17;21.37;;;15.87;;
17214;SDS011;8723;51.502;6.918;2022-12-07T09:06:45;17.83;;;13.73;;
17214;SDS011;8723;51.502;6.918;2022-12-07T09:09:12;22.63;;;15.80;;
17214;SDS011;8723;51.502;6.918;2022-12-07T09:11:42;24.60;;;16.38;;
17214;SDS011;8723;51.502;6.918;2022-12-07T09:14:10;19.17;;;14.38;;
17214;SDS011;8723;51.502;6.918;2022-12-07T09:16:37;21.13;;;13.88;;
17214;SDS011;8723;51.502;6.918;2022-12-07T09:19:04;22.08;;;14.90;;
17214;SDS011;8723;51.502;6.918;2022-12-07T09:21:31;20.38;;;13.68;;
17214;SDS011;8723;51.502;6.918;2022-12-07T09:23:58;16.67;;;12.30;;
17214;SDS011;8723;51.502;6.918;2022-12-07T09:26:26;18.10;;;12.90;;
17214;SDS011;8723;51.502;6.918;2022-12-07T09:28:54;13.77;;;10.63;;
17214;SDS011;8723;51.502;6.918;2022-12-07T09:31:21;14.85;;;10.85;;
17214;SDS011;8723;51.502;6.918;2022-12-07T09:33:52;17.53;;;11.00;;
17214;SDS011;8723;51.502;6.918;2022-12-07T09:36:19;14.95;;;10.65;;
17214;SDS011;8723;51.502;6.918;2022-12-07T09:38:46;12.80;;;9.55;;
17214;SDS011;8723;51.502;6.918;2022-12-07T09:41:14;12.32;;;9.20;;
17214;SDS011;8723;51.502;6.918;2022-12-07T09:43:41;13.93;;;10.60;;
17214;SDS011;8723;51.502;6.918;2022-12-07T09:46:10;13.75;;;9.60;;
17214;SDS011;8723;51.502;6.918;2022-12-07T09:48:40;11.48;;;9.75;;
17214;SDS011;8723;51.502;6.918;2022-12-07T09:51:12;12.80;;;9.95;;
17214;SDS011;8723;51.502;6.918;2022-12-07T09:53:40;11.80;;;9.82;;
17214;SDS011;8723;51.502;6.918;2022-12-07T09:56:08;13.45;;;9.95;;
17214;SDS011;8723;51.502;6.918;2022-12-07T09:58:37;13.85;;;9.90;;
17214;SDS011;8723;51.502;6.918;2022-12-07T10:01:08;12.25;;;9.77;;
17214;SDS011;8723;51.502;6.918;2022-12-07T10:03:38;11.63;;;9.48;;
17214;SDS011;8723;51.502;6.918;2022-12-07T10:06:06;14.00;;;9.25;;
17214;SDS011;8723;51.502;6.918;2022-12-07T10:08:33;13.53;;;8.40;;
17214;SDS011;8723;51.502;6.918;2022-12-07T10:11:01;11.75;;;8.68;;
17214;SDS011;8723;51.502;6.918;2022-12-07T10:13:33;11.93;;;8.40;;
17214;SDS011;8723;51.502;6.918;2022-12-07T10:16:01;9.25;;;8.20;;
17214;SDS011;8723;51.502;6.918;2022-12-07T10:18:29;10.02;;;7.40;;
17214;SDS011;8723;51.502;6.918;2022-12-07T10:21:02;14.98;;;8.85;;
17214;SDS011;8723;51.502;6.918;2022-12-07T10:23:30;9.13;;;6.88;;
17214;SDS011;8723;51.502;6.918;2022-12-07T10:25:57;8.15;;;6.90;;
17214;SDS011;8723;51.502;6.918;2022-12-07T10:28:27;9.40;;;6.85;;
17214;SDS011;8723;51.502;6.918;2022-12-07T10:31:00;10.55;;;7.10;;
17214;SDS011;8723;51.502;6.918;2022-12-07T10:33:30;10.05;;;6.60;;
17214;SDS011;8723;51.502;6.918;2022-12-07T10:35:58;9.73;;;6.68;;
17214;SDS011;8723;51.502;6.918;2022-12-07T10:38:27;7.75;;;6.78;;
17214;SDS011;8723;51.502;6.918;2022-12-07T10:41:04;9.40;;;6.53;;
17214;SDS011;8723;51.502;6.918;2022-12-07T10:43:32;12.20;;;7.90;;
17214;SDS011;8723;51.502;6.918;2022-12-07T10:48:46;9.07;;;6.72;;
17214;SDS011;8723;51.502;6.918;2022-12-07T10:51:16;7.18;;;5.78;;
17214;SDS011;8723;51.502;6.918;2022-12-07T10:53:50;8.60;;;6.75;;
17214;SDS011;8723;51.502;6.918;2022-12-07T10:56:32;5.60;;;5.10;;
17214;SDS011;8723;51.502;6.918;2022-12-07T10:59:07;7.47;;;5.90;;
17214;SDS011;8723;51.502;6.918;2022-12-07T11:01:39;10.63;;;7.28;;
17214;SDS011;8723;51.502;6.918;2022-12-07T11:04:15;10.15;;;6.80;;
17214;SDS011;8723;51.502;6.918;2022-12-07T11:06:45;7.97;;;5.85;;
17214;SDS011;8723;51.502;6.918;2022-12-07T11:09:26;8.47;;;6.60;;
17214;SDS011;8723;51.502;6.918;2022-12-07T11:11:57;10.65;;;6.28;;
17214;SDS011;8723;51.502;6.918;2022-12-07T11:14:28;8.07;;;5.50;;
17214;SDS011;8723;51.502;6.918;2022-12-07T11:17:01;9.27;;;5.75;;
17214;SDS011;8723;51.502;6.918;2022-12-07T11:19:43;9.45;;;6.07;;
17214;SDS011;8723;51.502;6.918;2022-12-07T11:22:17;8.63;;;5.90;;
17214;SDS011;8723;51.502;6.918;2022-12-07T11:24:48;9.82;;;5.78;;
17214;SDS011;8723;51.502;6.918;2022-12-07T11:27:19;9.52;;;6.03;;
17214;SDS011;8723;51.502;6.918;2022-12-07T11:29:50;7.03;;;5.30;;
17214;SDS011;8723;51.502;6.918;2022-12-07T11:32:22;7.15;;;4.78;;
17214;SDS011;8723;51.502;6.918;2022-12-07T11:34:58;8.40;;;5.22;;
17214;SDS011;8723;51.502;6.918;2022-12-07T11:37:28;7.38;;;4.47;;
17214;SDS011;8723;51.502;6.918;2022-12-07T11:39:59;7.30;;;4.80;;
17214;SDS011;8723;51.502;6.918;2022-12-07T11:42:29;5.47;;;3.50;;
17214;SDS011;8723;51.502;6.918;2022-12-07T11:44:59;9.02;;;4.38;;
17214;SDS011;8723;51.502;6.918;2022-12-07T11:47:28;7.28;;;4.35;;
17214;SDS011;8723;51.502;6.918;2022-12-07T11:49:58;6.83;;;3.73;;
17214;SDS011;8723;51.502;6.918;2022-12-07T11:52:32;7.13;;;4.15;;
17214;SDS011;8723;51.502;6.918;2022-12-07T11:55:13;7.47;;;4.00;;
17214;SDS011;8723;51.502;6.918;2022-12-07T11:57:41;6.20;;;3.50;;
17214;SDS011;8723;51.502;6.918;2022-12-07T12:00:13;4.75;;;3.50;;
17214;SDS011;8723;51.502;6.918;2022-12-07T12:02:43;7.28;;;3.58;;
17214;SDS011;8723;51.502;6.918;2022-12-07T12:05:15;5.35;;;3.70;;
17214;SDS011;8723;51.502;6.918;2022-12-07T12:07:43;7.45;;;3.78;;
17214;SDS011;8723;51.502;6.918;2022-12-07T12:10:17;4.15;;;3.17;;
17214;SDS011;8723;51.502;6.918;2022-12-07T12:12:53;6.93;;;3.40;;
17214;SDS011;8723;51.502;6.918;2022-12-07T12:15:26;8.25;;;3.78;;
17214;SDS011;8723;51.502;6.918;2022-12-07T12:18:07;4.88;;;3.50;;
17214;SDS011;8723;51.502;6.918;2022-12-07T12:20:40;5.35;;;3.30;;
17214;SDS011;8723;51.502;6.918;2022-12-07T12:23:10;3.92;;;3.15;;
17214;SDS011;8723;51.502;6.918;2022-12-07T12:25:40;11.15;;;4.38;;
17214;SDS011;8723;51.502;6.918;2022-12-07T12:28:16;6.57;;;3.78;;
17214;SDS011;8723;51.502;6.918;2022-12-07T12:30:45;6.78;;;4.03;;
17214;SDS011;8723;51.502;6.918;2022-12-07T12:33:31;6.43;;;4.18;;
17214;SDS011;8723;51.502;6.918;2022-12-07T12:36:18;9.52;;;4.70;;
17214;SDS011;8723;51.502;6.918;2022-12-07T12:38:48;8.23;;;4.38;;
17214;SDS011;8723;51.502;6.918;2022-12-07T12:43:58;6.75;;;4.75;;
17214;SDS011;8723;51.502;6.918;2022-12-07T12:46:38;9.10;;;5.22;;
17214;SDS011;8723;51.502;6.918;2022-12-07T12:51:56;7.22;;;4.95;;
17214;SDS011;8723;51.502;6.918;2022-12-07T12:54:24;7.32;;;4.75;;
17214;SDS011;8723;51.502;6.918;2022-12-07T12:56:52;7.18;;;4.88;;
17214;SDS011;8723;51.502;6.918;2022-12-07T12:59:25;9.00;;;5.50;;
17214;SDS011;8723;51.502;6.918;2022-12-07T13:01:54;8.70;;;4.90;;
17214;SDS011;8723;51.502;6.918;2022-12-07T13:04:29;9.45;;;5.00;;
17214;SDS011;8723;51.502;6.918;2022-12-07T13:06:58;8.00;;;5.22;;
17214;SDS011;8723;51.502;6.918;2022-12-07T13:09:26;9.13;;;5.10;;
17214;SDS011;8723;51.502;6.918;2022-12-07T13:12:01;7.97;;;4.97;;
17214;SDS011;8723;51.502;6.918;2022-12-07T13:20:39;8.15;;;5.10;;
17214;SDS011;8723;51.502;6.918;2022-12-07T13:23:00;5.25;;;4.07;;
17214;SDS011;8723;51.502;6.918;2022-12-07T13:25:33;4.72;;;3.67;;
17214;SDS011;8723;51.502;6.918;2022-12-07T13:28:04;5.85;;;3.83;;
17214;SDS011;8723;51.502;6.918;2022-12-07T13:30:38;6.88;;;3.80;;
17214;SDS011;8723;51.502;6.918;2022-12-07T13:33:08;6.68;;;4.00;;
17214;SDS011;8723;51.502;6.918;2022-12-07T13:35:37;8.20;;;4.20;;
17214;SDS011;8723;51.502;6.918;2022-12-07T13:38:05;4.70;;;3.30;;
17214;SDS011;8723;51.502;6.918;2022-12-07T13:40:32;6.70;;;3.70;;
17214;SDS011;8723;51.502;6.918;2022-12-07T13:43:00;8.40;;;4.55;;
17214;SDS011;8723;51.502;6.918;2022-12-07T13:45:28;6.35;;;4.43;;
17214;SDS011;8723;51.502;6.918;2022-12-07T13:48:14;7.07;;;3.80;;
17214;SDS011;8723;51.502;6.918;2022-12-07T13:50:51;6.60;;;4.30;;
17214;SDS011;8723;51.502;6.918;2022-12-07T13:53:18;5.70;;;4.00;;
17214;SDS011;8723;51.502;6.918;2022-12-07T13:55:46;7.97;;;4.35;;
17214;SDS011;8723;51.502;6.918;2022-12-07T13:58:13;6.70;;;4.57;;
17214;SDS011;8723;51.502;6.918;2022-12-07T14:00:40;7.20;;;4.25;;
17214;SDS011;8723;51.502;6.918;2022-12-07T14:03:22;8.63;;;4.83;;
17214;SDS011;8723;51.502;6.918;2022-12-07T14:06:04;6.53;;;4.72;;
17214;SDS011;8723;51.502;6.918;2022-12-07T14:08:32;8.88;;;5.22;;
17214;SDS011;8723;51.502;6.918;2022-12-07T14:10:59;16.23;;;12.23;;
17214;SDS011;8723;51.502;6.918;2022-12-07T14:13:28;11.02;;;7.43;;
17214;SDS011;8723;51.502;6.918;2022-12-07T14:15:57;11.73;;;7.78;;
17214;SDS011;8723;51.502;6.918;2022-12-07T14:18:25;8.68;;;6.07;;
17214;SDS011;8723;51.502;6.918;2022-12-07T14:21:02;6.70;;;3.97;;
17214;SDS011;8723;51.502;6.918;2022-12-07T14:23:31;7.15;;;4.80;;
17214;SDS011;8723;51.502;6.918;2022-12-07T14:26:05;8.20;;;5.25;;
17214;SDS011;8723;51.502;6.918;2022-12-07T14:28:33;7.97;;;4.60;;
17214;SDS011;8723;51.502;6.918;2022-12-07T14:31:01;8.25;;;4.38;;
17214;SDS011;8723;51.502;6.918;2022-12-07T14:33:28;6.93;;;3.75;;
17214;SDS011;8723;51.502;6.918;2022-12-07T14:35:56;6.78;;;4.00;;
17214;SDS011;8723;51.502;6.918;2022-12-07T14:38:23;5.45;;;4.10;;
17214;SDS011;8723;51.502;6.918;2022-12-07T14:40:52;7.30;;;4.20;;
17214;SDS011;8723;51.502;6.918;2022-12-07T14:43:40;8.32;;;4.68;;
17214;SDS011;8723;51.502;6.918;2022-12-07T14:46:07;7.38;;;4.45;;
17214;SDS011;8723;51.502;6.918;2022-12-07T14:48:35;7.55;;;4.70;;
17214;SDS011;8723;51.502;6.918;2022-12-07T14:51:02;8.98;;;4.30;;
17214;SDS011;8723;51.502;6.918;2022-12-07T14:53:30;7.82;;;4.38;;
17214;SDS011;8723;51.502;6.918;2022-12-07T14:56:01;8.40;;;4.50;;
17214;SDS011;8723;51.502;6.918;2022-12-07T14:58:30;8.13;;;4.57;;
17214;SDS011;8723;51.502;6.918;2022-12-07T15:00:57;6.75;;;4.35;;
17214;SDS011;8723;51.502;6.918;2022-12-07T15:03:24;5.57;;;3.60;;
17214;SDS011;8723;51.502;6.918;2022-12-07T15:05:52;8.35;;;4.20;;
17214;SDS011;8723;51.502;6.918;2022-12-07T15:08:19;9.35;;;4.38;;
17214;SDS011;8723;51.502;6.918;2022-12-07T15:10:46;9.45;;;5.05;;
17214;SDS011;8723;51.502;6.918;2022-12-07T15:13:14;9.57;;;4.40;;
17214;SDS011;8723;51.502;6.918;2022-12-07T15:15:59;11.20;;;4.35;;